Swift Current Airport, Saskatchewan

Past 24 Hour Conditions

This table is a summary of hourly weather conditions for the past 24 hours. This summary includes the following parameters: temperature, humidity, dew point, wind speed and direction, air pressure, visibility and/or wind chill and humidex.
Date / Time
(CST)
Conditions Temp (°F) Humidity (%) Dew Point (°F) Wind (mph) Pressure (inches) Visibility (miles)
30 September 2014
12:00 Partly Cloudy 63   58 48 WSW 14 gust 23 29.5 10
11:00 Sunny 60 66 49 SW 16 gust 22 29.6 10
10:00 Sunny 55 78 49 S 15 29.6 10
9:00 Mainly Sunny 54 83 49 S 14 29.6 10
8:00 Partly Cloudy 50 93 48 S 17 gust 24 29.6 10
7:00 Cloudy 50 93 48 S 21 gust 28 29.6 10
6:00 Cloudy 50 92 48 S 28 29.6 10
5:00 Cloudy 51 92 48 S 25 29.6 10
4:00 Cloudy 51 91 48 S 20 gust 26 29.6 10
3:00 Cloudy 50 93 48 S 15 29.6 10
2:00 Cloudy 49 94 47 S 18 gust 25 29.6 10
1:00 Cloudy 48 93 46 SSE 17 gust 25 29.7 10
00:00 Cloudy 47   94 46 SSE 16 29.7 10
29 September 2014
23:00 Cloudy 47   94 45 SSE 24 gust 32 29.7 10
22:00 Cloudy 47   92 45 SSE 22 gust 31 29.8 10
21:00 Mostly Cloudy 47   88 44 SSE 21 gust 28 29.8 10
20:00 Cloudy 48 84 44 SSE 18 gust 30 29.8 10
19:00 Cloudy 48 85 44 SSE 18 gust 28 29.8 10
18:00 Cloudy 50 81 44 SSE 22 gust 31 29.9 10
17:00 Cloudy 52 76 45 SSE 23 gust 30 29.9 10
16:00 Cloudy 53 73 45 SE 22 gust 30 29.9 10
15:00 Cloudy 55 70 45 SSE 22 gust 28 29.9 10
14:00 Cloudy 53 74 45 SE 22 gust 31 29.9 10
13:00 Mostly Cloudy 53 73 45 SSE 22 gust 29 30.0 10
12:00 Cloudy 51 76 44 SSE 21 gust 29 30.0 10
N/A
Not available
 ↑ 
Highest temperature
 ↓ 
Lowest temperature

If you require additional historical weather information, please visit Climate Data Online.